Time;durP1;ratioP1;P1;durP2;ratioP2;P2;SDS_P1;SDS_P2;PMS_P1;PMS_P2;Temp;Humidity;BMP_temperature;BMP_pressure;BME280_temperature;BME280_humidity;BME280_pressure;Samples;Min_cycle;Max_cycle;Signal;HPM_P1;HPM_P2
2022/05/08 00:00:28;;;;;;;;;;;;;;;7.44;54.38;101552.41;1706064;84;20204;-59
2022/05/08 00:03:34;;;;;;;;;;;;;;;7.39;54.38;101551.44;1706078;84;20196;-59
2022/05/08 00:06:39;;;;;;;;;;;;;;;7.35;54.42;101553.19;1689575;83;20224;-59
2022/05/08 00:09:45;;;;;;;;;;;;;;;7.32;54.52;101554.31;1705762;84;20249;-60
2022/05/08 00:12:51;;;;;;;;;;;;;;;7.33;54.68;101556.52;1713011;83;20524;-60
2022/05/08 00:15:54;;;;;;;;;;;;;;;7.34;54.83;101556.39;1726093;83;20219;-58
2022/05/08 00:19:01;;;;;;;;;;;;;;;7.32;54.90;101550.23;1726033;83;20192;-59
2022/05/08 00:22:07;;;;;;;;;;;;;;;7.32;54.96;101554.31;1709496;83;20188;-59
2022/05/08 00:25:15;;;;;;;;;;;;;;;7.32;55.03;101552.95;1725696;83;20227;-58
2022/05/08 00:28:20;;;;;;;;;;;;;;;7.31;55.12;101552.56;1702680;83;20275;-59
2022/05/08 00:31:25;;;;;;;;;;;;;;;7.30;55.17;101556.30;1726024;83;20199;-58
2022/05/08 00:34:31;;;;;;;;;;;;;;;7.26;55.15;101553.44;1725986;83;20272;-59
2022/05/08 00:37:35;;;;;;;;;;;;;;;7.26;55.22;101548.51;1726067;83;20211;-60
2022/05/08 00:40:41;;;;;;;;;;;;;;;7.23;55.32;101548.25;1726320;83;20223;-57
2022/05/08 00:43:47;;;;;;;;;;;;;;;7.20;55.37;101540.81;1726034;83;20196;-59
2022/05/08 00:46:52;;;;;;;;;;;;;;;7.19;55.44;101546.78;1726017;83;20231;-58
2022/05/08 00:49:57;;;;;;;;;;;;;;;7.20;55.56;101548.50;1726027;83;20196;-58
2022/05/08 00:53:04;;;;;;;;;;;;;;;7.20;55.65;101543.53;1720977;82;20185;-57
2022/05/08 00:56:09;;;;;;;;;;;;;;;7.19;55.72;101542.70;1744048;82;20550;-58
2022/05/08 00:59:14;;;;;;;;;;;;;;;7.20;55.80;101549.86;1744034;82;20198;-58
2022/05/08 01:02:20;;;;;;;;;;;;;;;7.18;55.86;101546.39;1744235;82;20526;-57
2022/05/08 01:05:25;;;;;;;;;;;;;;;7.16;55.80;101548.39;1744115;82;20372;-58
2022/05/08 01:08:30;;;;;;;;;;;;;;;7.11;55.79;101542.45;1744017;82;20186;-59
2022/05/08 01:11:34;;;;;;;;;;;;;;;7.08;55.81;101541.83;1744031;82;20194;-59
2022/05/08 01:14:39;;;;;;;;;;;;;;;7.03;55.83;101544.94;1736012;81;20182;-58
2022/05/08 01:17:44;;;;;;;;;;;;;;;7.00;55.90;101539.74;1733509;83;20210;-59
2022/05/08 01:20:53;;;;;;;;;;;;;;;6.99;55.99;101538.51;1733646;83;20214;-58
2022/05/08 01:23:58;;;;;;;;;;;;;;;7.01;56.12;101538.74;1733560;83;20570;-59
2022/05/08 01:27:03;;;;;;;;;;;;;;;7.02;56.16;101536.41;1733635;83;20230;-59
2022/05/08 01:30:08;;;;;;;;;;;;;;;7.02;56.23;101532.33;1733678;83;20202;-59
2022/05/08 01:33:07;;;;;;;;;;;;;;;7.05;56.36;101536.16;1733591;83;20242;-58
2022/05/08 01:36:15;;;;;;;;;;;;;;;7.10;56.51;101533.90;1733614;83;20202;-59
2022/05/08 01:39:21;;;;;;;;;;;;;;;7.13;56.54;101532.80;1733444;83;20238;-57
2022/05/08 01:42:27;;;;;;;;;;;;;;;7.15;56.62;101530.30;1733575;83;20510;-59
2022/05/08 01:45:32;;;;;;;;;;;;;;;7.17;56.63;101535.63;1733508;83;20187;-58
2022/05/08 01:48:37;;;;;;;;;;;;;;;7.20;56.75;101532.16;1733493;83;20238;-58
2022/05/08 01:51:45;;;;;;;;;;;;;;;7.26;56.92;101538.45;1733607;83;20276;-59
2022/05/08 01:54:49;;;;;;;;;;;;;;;7.29;57.05;101534.11;1733471;83;20199;-59
2022/05/08 01:57:54;;;;;;;;;;;;;;;7.31;57.05;101534.86;1733508;83;20262;-58
2022/05/08 02:01:01;;;;;;;;;;;;;;;7.26;57.03;101535.73;1733653;83;20273;-59
2022/05/08 02:04:12;;;;;;;;;;;;;;;7.25;57.08;101540.83;1733526;83;20526;-58
2022/05/08 02:07:14;;;;;;;;;;;;;;;7.24;57.18;101538.23;1733495;83;20566;-58
2022/05/08 02:10:21;;;;;;;;;;;;;;;7.23;57.23;101533.27;1714631;83;20198;-59
2022/05/08 02:13:25;;;;;;;;;;;;;;;7.19;57.21;101537.25;1733596;83;20202;-59
2022/05/08 02:16:30;;;;;;;;;;;;;;;7.14;57.19;101540.84;1731534;83;20579;-58
2022/05/08 02:19:35;;;;;;;;;;;;;;;7.10;57.25;101542.06;1734047;83;20202;-59
2022/05/08 02:22:41;;;;;;;;;;;;;;;7.08;57.32;101545.43;1734012;83;20210;-59
2022/05/08 02:25:46;;;;;;;;;;;;;;;7.06;57.38;101543.33;1734062;83;20553;-59
2022/05/08 02:28:52;;;;;;;;;;;;;;;7.01;57.38;101544.67;1734045;83;20178;-59
2022/05/08 02:31:57;;;;;;;;;;;;;;;6.98;57.43;101544.92;1734017;83;20534;-60
2022/05/08 02:35:02;;;;;;;;;;;;;;;6.97;57.57;101540.48;1734066;83;20198;-60
2022/05/08 02:38:06;;;;;;;;;;;;;;;7.00;57.81;101545.19;1734057;83;20507;-60
2022/05/08 02:41:10;;;;;;;;;;;;;;;7.04;58.03;101556.19;1733972;83;20194;-58
2022/05/08 02:44:13;;;;;;;;;;;;;;;7.07;58.10;101545.56;1734003;83;20206;-59
2022/05/08 02:47:18;;;;;;;;;;;;;;;7.11;58.16;101547.02;1734024;83;20202;-59
2022/05/08 02:50:24;;;;;;;;;;;;;;;7.12;58.18;101538.73;1733994;83;20563;-58
2022/05/08 02:53:22;;;;;;;;;;;;;;;7.17;58.24;101547.88;1734007;83;20578;-60
2022/05/08 02:59:40;;;;;;;;;;;;;;;7.26;58.33;101546.63;1733987;83;20551;-60
2022/05/08 03:02:46;;;;;;;;;;;;;;;7.29;58.36;101546.38;1733980;83;20222;-59
2022/05/08 03:05:53;;;;;;;;;;;;;;;7.33;58.38;101544.27;1734013;83;20190;-59
2022/05/08 03:08:58;;;;;;;;;;;;;;;7.40;58.45;101549.59;1733966;83;20203;-60
2022/05/08 03:12:04;;;;;;;;;;;;;;;7.49;58.58;101550.17;1733957;83;20214;-60
2022/05/08 03:15:10;;;;;;;;;;;;;;;7.63;58.69;101555.86;1733939;83;20198;-59
2022/05/08 03:18:15;;;;;;;;;;;;;;;7.75;58.79;101552.96;1743914;82;20186;-59
2022/05/08 03:21:20;;;;;;;;;;;;;;;7.89;58.84;101560.83;1701854;82;20210;-60
2022/05/08 03:24:31;;;;;;;;;;;;;;;8.04;58.81;101566.85;1743984;82;20194;-60
2022/05/08 03:27:32;;;;;;;;;;;;;;;8.17;58.76;101561.56;1743971;82;20519;-59
2022/05/08 03:30:37;;;;;;;;;;;;;;;8.35;58.81;101556.42;1744176;82;20221;-60
2022/05/08 03:33:43;;;;;;;;;;;;;;;8.57;58.85;101561.73;1743927;82;20621;-58
2022/05/08 03:36:48;;;;;;;;;;;;;;;8.74;58.73;101561.11;1743757;82;20230;-58
2022/05/08 03:39:52;;;;;;;;;;;;;;;8.93;58.66;101561.20;1743581;82;20210;-59
2022/05/08 03:42:58;;;;;;;;;;;;;;;9.12;58.71;101553.09;1768949;81;20291;-60
2022/05/08 03:46:04;;;;;;;;;;;;;;;9.38;58.79;101562.55;1774603;81;20211;-60
2022/05/08 03:49:11;;;;;;;;;;;;;;;9.64;58.82;101555.54;1775246;81;20257;-59
2022/05/08 03:52:18;;;;;;;;;;;;;;;9.91;58.78;101555.72;1774629;81;20192;-60
2022/05/08 03:55:24;;;;;;;;;;;;;;;10.15;58.75;101558.93;1774634;81;20180;-59
2022/05/08 03:58:31;;;;;;;;;;;;;;;10.40;58.68;101554.22;1774750;81;20204;-58
2022/05/08 04:01:36;;;;;;;;;;;;;;;10.61;58.57;101558.14;1774912;81;20196;-59
2022/05/08 04:04:41;;;;;;;;;;;;;;;10.77;58.49;101562.50;1774712;81;20192;-59
2022/05/08 04:07:40;;;;;;;;;;;;;;;10.89;58.52;101559.97;1762441;81;20527;-59
2022/05/08 04:10:45;;;;;;;;;;;;;;;11.01;58.48;101555.14;1774709;81;20527;-59
2022/05/08 04:13:52;;;;;;;;;;;;;;;11.11;58.47;101563.70;1774703;81;20200;-59
2022/05/08 04:16:58;;;;;;;;;;;;;;;11.21;58.44;101565.03;1773124;81;20211;-59
2022/05/08 04:20:06;;;;;;;;;;;;;;;11.29;58.36;101564.61;1774775;81;20176;-59
2022/05/08 04:26:34;;;;;;;;;;;;;;;11.51;58.27;101571.59;1744098;82;20467;-58
2022/05/08 04:29:38;;;;;;;;;;;;;;;11.65;58.21;101566.98;1717845;83;20558;-59
2022/05/08 04:32:42;;;;;;;;;;;;;;;11.79;58.13;101572.81;1715517;84;20242;-59
2022/05/08 04:35:47;;;;;;;;;;;;;;;11.95;58.02;101568.00;1754539;81;20192;-59
2022/05/08 04:38:55;;;;;;;;;;;;;;;12.16;57.89;101571.81;1765422;81;20556;-59
2022/05/08 04:42:01;;;;;;;;;;;;;;;12.33;57.69;101574.55;1764614;81;20219;-60
2022/05/08 04:45:11;;;;;;;;;;;;;;;12.43;57.49;101573.09;1728220;81;20231;-58
2022/05/08 04:48:17;;;;;;;;;;;;;;;12.53;57.40;101562.35;1743226;82;20214;-59
2022/05/08 04:51:22;;;;;;;;;;;;;;;12.64;57.34;101566.72;1743382;82;20315;-59
2022/05/08 04:54:29;;;;;;;;;;;;;;;12.71;57.26;101567.31;1743492;82;20218;-58
2022/05/08 04:57:34;;;;;;;;;;;;;;;12.72;57.19;101573.14;1743409;82;20249;-59
2022/05/08 05:00:41;;;;;;;;;;;;;;;12.72;57.19;101567.65;1743526;82;20261;-58
2022/05/08 05:03:47;;;;;;;;;;;;;;;12.75;57.13;101563.20;1743505;82;20285;-60
2022/05/08 05:06:56;;;;;;;;;;;;;;;12.79;57.14;101567.38;1735952;82;20202;-59
2022/05/08 05:10:02;;;;;;;;;;;;;;;12.91;57.13;101566.56;1743853;82;20205;-60
2022/05/08 05:13:08;;;;;;;;;;;;;;;13.07;57.09;101568.08;1744095;82;20229;-59
2022/05/08 05:16:14;;;;;;;;;;;;;;;13.20;57.04;101566.63;1743995;82;20194;-58
2022/05/08 05:19:35;;;;;;;;;;;;;;;13.35;56.98;101558.63;1736634;81;20254;-60
2022/05/08 05:22:40;;;;;;;;;;;;;;;13.51;56.96;101555.41;1733830;83;20222;-56
2022/05/08 05:25:46;;;;;;;;;;;;;;;13.73;56.87;101558.05;1733890;83;20186;-58
2022/05/08 05:28:54;;;;;;;;;;;;;;;13.93;56.84;101561.38;1736433;81;20191;-57
2022/05/08 05:32:01;;;;;;;;;;;;;;;14.20;56.82;101553.69;1734453;82;20328;-58
2022/05/08 05:35:09;;;;;;;;;;;;;;;14.53;56.80;101554.58;1733874;82;20183;-58
2022/05/08 05:38:24;;;;;;;;;;;;;;;14.83;56.59;101555.23;1734824;82;20204;-58
2022/05/08 05:41:33;;;;;;;;;;;;;;;15.07;56.43;101553.81;1734176;82;20195;-57
2022/05/08 05:44:38;;;;;;;;;;;;;;;15.32;56.38;101549.09;1733622;82;20562;-58
2022/05/08 05:47:53;;;;;;;;;;;;;;;15.59;56.31;101551.40;1734097;82;20210;-58
2022/05/08 05:51:10;;;;;;;;;;;;;;;15.78;56.14;101560.62;1733881;82;20203;-57
2022/05/08 05:54:21;;;;;;;;;;;;;;;15.97;55.95;101561.55;1747617;81;20550;-56
2022/05/08 05:57:27;;;;;;;;;;;;;;;16.13;55.89;101562.31;1758992;81;20216;-57
2022/05/08 06:00:33;;;;;;;;;;;;;;;16.32;55.77;101556.30;1758368;81;20216;-57
2022/05/08 06:03:41;;;;;;;;;;;;;;;16.48;55.54;101553.95;1754757;81;20255;-58
2022/05/08 06:06:46;;;;;;;;;;;;;;;16.64;55.37;101557.09;1763007;81;20208;-59
2022/05/08 06:09:51;;;;;;;;;;;;;;;16.81;55.19;101562.84;1763401;81;20209;-58
2022/05/08 06:12:58;;;;;;;;;;;;;;;16.96;55.02;101556.28;1763111;81;20240;-57
2022/05/08 06:16:03;;;;;;;;;;;;;;;17.09;54.84;101563.92;1762705;81;20325;-57
2022/05/08 06:19:12;;;;;;;;;;;;;;;17.21;54.63;101555.48;1762332;79;20279;-57
2022/05/08 06:22:22;;;;;;;;;;;;;;;17.35;54.44;101554.61;1762993;81;20651;-57
2022/05/08 06:25:28;;;;;;;;;;;;;;;17.44;54.29;101547.95;1763158;81;20220;-59
2022/05/08 06:28:34;;;;;;;;;;;;;;;17.56;54.13;101552.84;1763001;81;20552;-59
2022/05/08 06:31:40;;;;;;;;;;;;;;;17.69;54.00;101548.00;1762465;81;20224;-57
2022/05/08 06:34:47;;;;;;;;;;;;;;;17.84;53.81;101549.67;1762644;81;20212;-57
2022/05/08 06:37:51;;;;;;;;;;;;;;;17.98;53.62;101548.45;1762558;81;20219;-55
2022/05/08 06:40:58;;;;;;;;;;;;;;;18.06;53.41;101537.25;1751964;81;20238;-58
2022/05/08 06:44:03;;;;;;;;;;;;;;;18.13;53.29;101541.80;1715944;82;20305;-58
2022/05/08 06:47:11;;;;;;;;;;;;;;;18.18;53.04;101540.70;1724402;82;20216;-60
2022/05/08 06:50:19;;;;;;;;;;;;;;;18.20;52.77;101542.75;1716900;82;20278;-59
2022/05/08 06:53:23;;;;;;;;;;;;;;;18.24;52.67;101548.22;1708781;83;20560;-58
2022/05/08 06:56:30;;;;;;;;;;;;;;;18.30;52.46;101536.88;1740311;82;20681;-57
2022/05/08 07:03:02;;;;;;;;;;;;;;;18.35;52.15;101537.11;1740921;82;20216;-59
2022/05/08 07:06:08;;;;;;;;;;;;;;;18.38;51.97;101527.91;1706320;83;20193;-59
2022/05/08 07:09:16;;;;;;;;;;;;;;;18.42;51.85;101532.02;1735384;82;20256;-57
2022/05/08 07:12:23;;;;;;;;;;;;;;;18.41;51.68;101528.90;1708913;84;20213;-57
2022/05/08 07:15:28;;;;;;;;;;;;;;;18.45;51.53;101528.84;1734661;82;20557;-59
2022/05/08 07:18:34;;;;;;;;;;;;;;;18.52;51.39;101527.52;1732500;83;20207;-58
2022/05/08 07:21:39;;;;;;;;;;;;;;;18.59;51.24;101534.84;1714697;79;20247;-57
2022/05/08 07:24:48;;;;;;;;;;;;;;;18.69;51.04;101539.53;1712327;83;20224;-58
2022/05/08 07:27:53;;;;;;;;;;;;;;;18.79;50.93;101535.85;1712197;84;20564;-58
2022/05/08 07:30:59;;;;;;;;;;;;;;;18.86;50.72;101534.52;1713456;83;20243;-59
2022/05/08 07:37:30;;;;;;;;;;;;;;;19.06;50.30;101536.91;1713234;83;20200;-60
2022/05/08 07:40:37;;;;;;;;;;;;;;;19.20;50.10;101531.24;1713998;83;20607;-60
2022/05/08 07:43:46;;;;;;;;;;;;;;;19.30;49.89;101533.69;1713390;83;20279;-58
2022/05/08 07:46:51;;;;;;;;;;;;;;;19.36;49.63;101530.08;1712955;84;20291;-59
2022/05/08 07:49:58;;;;;;;;;;;;;;;19.50;49.41;101532.41;1713510;83;20240;-58
2022/05/08 07:53:06;;;;;;;;;;;;;;;19.61;49.13;101526.27;1661938;85;20202;-58
2022/05/08 07:56:12;;;;;;;;;;;;;;;19.70;48.90;101528.66;1713958;83;20232;-65
2022/05/08 07:59:21;;;;;;;;;;;;;;;19.79;48.75;101526.02;1714357;83;20228;-59
2022/05/08 08:02:28;;;;;;;;;;;;;;;19.85;48.48;101522.40;1713298;83;20367;-59
2022/05/08 08:05:34;;;;;;;;;;;;;;;19.89;48.26;101522.84;1683513;85;20217;-56
2022/05/08 08:08:41;;;;;;;;;;;;;;;19.94;48.01;101518.91;1713049;83;20560;-58
2022/05/08 08:11:48;;;;;;;;;;;;;;;20.00;47.89;101525.02;1696713;83;20219;-58
2022/05/08 08:14:54;;;;;;;;;;;;;;;20.09;47.74;101523.78;1699212;84;20529;-60
2022/05/08 08:18:04;;;;;;;;;;;;;;;20.14;47.49;101522.63;1707139;84;20248;-58
2022/05/08 08:21:12;;;;;;;;;;;;;;;20.23;47.36;101511.66;1717554;82;20213;-58
2022/05/08 08:24:18;;;;;;;;;;;;;;;20.39;47.17;101508.47;1744351;82;20273;-60
2022/05/08 08:27:25;;;;;;;;;;;;;;;20.48;46.99;101502.48;1705349;83;20629;-58
2022/05/08 08:30:30;;;;;;;;;;;;;;;20.48;46.78;101503.88;1711427;83;20529;-59
2022/05/08 08:33:36;;;;;;;;;;;;;;;20.52;46.61;101509.84;1719865;81;20550;-57
2022/05/08 08:36:41;;;;;;;;;;;;;;;20.58;46.55;101502.89;1733663;82;20550;-58
2022/05/08 08:39:48;;;;;;;;;;;;;;;20.59;46.28;101506.55;1734346;82;20222;-57
2022/05/08 08:42:58;;;;;;;;;;;;;;;20.59;46.20;101506.55;1733725;82;20218;-57
2022/05/08 08:49:29;;;;;;;;;;;;;;;20.72;45.91;101496.81;1725177;82;20198;-60
2022/05/08 08:52:33;;;;;;;;;;;;;;;20.89;45.79;101502.77;1733918;82;20219;-58
2022/05/08 08:55:39;;;;;;;;;;;;;;;20.98;45.64;101502.37;1716035;83;20225;-58
2022/05/08 08:58:44;;;;;;;;;;;;;;;21.07;45.40;101491.34;1704969;84;20564;-59
2022/05/08 09:01:44;;;;;;;;;;;;;;;21.15;45.26;101492.51;1707132;84;20608;-58
2022/05/08 09:04:54;;;;;;;;;;;;;;;21.20;45.15;101485.72;1705606;84;20217;-57
2022/05/08 09:08:00;;;;;;;;;;;;;;;21.31;45.17;101487.83;1714530;83;20213;-58
2022/05/08 09:11:07;;;;;;;;;;;;;;;21.35;44.99;101490.52;1704394;84;20208;-60
2022/05/08 09:14:11;;;;;;;;;;;;;;;21.40;44.84;101482.88;1686800;84;20253;-61
2022/05/08 09:17:29;;;;;;;;;;;;;;;21.41;44.69;101481.27;1705606;84;20284;-59
2022/05/08 09:20:51;;;;;;;;;;;;;;;21.43;44.42;101477.73;1704706;84;20197;-59
2022/05/08 09:23:58;;;;;;;;;;;;;;;21.41;44.27;101472.91;1705036;81;20216;-57
2022/05/08 09:27:20;;;;;;;;;;;;;;;21.43;44.14;101463.80;1705738;84;20265;-59
2022/05/08 09:30:26;;;;;;;;;;;;;;;21.43;44.01;101465.20;1705523;84;20200;-59
2022/05/08 09:33:33;;;;;;;;;;;;;;;21.43;43.94;101467.12;1704909;84;20596;-58
2022/05/08 09:36:45;;;;;;;;;;;;;;;21.49;43.85;101468.48;1721624;83;20234;-58
2022/05/08 09:39:50;;;;;;;;;;;;;;;21.55;43.67;101457.84;1731815;82;20214;-59
2022/05/08 09:42:57;;;;;;;;;;;;;;;21.61;43.63;101456.95;1716939;82;20541;-58
2022/05/08 09:46:05;;;;;;;;;;;;;;;21.71;43.59;101458.73;1731669;82;20273;-57
2022/05/08 09:49:08;;;;;;;;;;;;;;;21.84;43.47;101457.31;1711278;83;20203;-57
2022/05/08 09:52:13;;;;;;;;;;;;;;;22.02;43.32;101450.42;1704572;84;20232;-59
2022/05/08 09:55:20;;;;;;;;;;;;;;;22.14;43.03;101452.82;1704337;83;20212;-56
2022/05/08 09:58:26;;;;;;;;;;;;;;;22.20;42.88;101440.75;1704124;84;20304;-57
2022/05/08 10:01:34;;;;;;;;;;;;;;;22.31;42.89;101444.73;1711519;83;20768;-58
2022/05/08 10:04:40;;;;;;;;;;;;;;;22.38;42.91;101441.37;1734243;82;20571;-58
2022/05/08 10:07:46;;;;;;;;;;;;;;;22.47;42.78;101440.00;1734066;82;20214;-58
2022/05/08 10:14:17;;;;;;;;;;;;;;;22.84;42.50;101431.20;1733532;82;20242;-57
2022/05/08 10:17:22;;;;;;;;;;;;;;;22.94;42.26;101423.16;1702605;82;20250;-58
2022/05/08 10:21:04;;;;;;;;;;;;;;;23.09;42.21;101420.28;1733536;82;20226;-58
2022/05/08 10:24:09;;;;;;;;;;;;;;;23.22;42.10;101423.47;1740613;81;20245;-58
2022/05/08 10:27:22;;;;;;;;;;;;;;;23.41;41.96;101412.08;1738712;82;20516;-59
2022/05/08 10:30:27;;;;;;;;;;;;;;;23.60;41.97;101407.30;1755167;80;20269;-58
2022/05/08 10:33:34;;;;;;;;;;;;;;;23.97;42.03;101399.70;1754320;82;20597;-59
2022/05/08 10:36:42;;;;;;;;;;;;;;;24.18;41.89;101402.78;1731506;82;20217;-58
2022/05/08 10:39:53;;;;;;;;;;;;;;;24.25;41.82;101399.34;1755726;81;20590;-59
2022/05/08 10:43:02;;;;;;;;;;;;;;;24.20;41.63;101399.20;1755424;81;20236;-59
2022/05/08 10:46:27;;;;;;;;;;;;;;;24.07;41.52;101391.02;1756050;81;20569;-58
2022/05/08 10:49:31;;;;;;;;;;;;;;;23.92;41.34;101393.39;1754945;82;20213;-58
2022/05/08 10:52:39;;;;;;;;;;;;;;;23.73;41.16;101393.14;1742060;81;20300;-60
2022/05/08 10:55:44;;;;;;;;;;;;;;;23.55;41.08;101393.17;1749112;81;20201;-59
2022/05/08 10:58:57;;;;;;;;;;;;;;;23.33;41.05;101387.78;1760943;81;20572;-59
2022/05/08 11:02:02;;;;;;;;;;;;;;;23.24;41.09;101385.84;1757443;81;20220;-58
2022/05/08 11:05:08;;;;;;;;;;;;;;;23.36;41.00;101380.31;1755448;81;20220;-58
2022/05/08 11:08:16;;;;;;;;;;;;;;;23.67;41.05;101385.71;1755700;81;20198;-58
2022/05/08 11:11:23;;;;;;;;;;;;;;;24.05;41.00;101376.44;1729609;80;20617;-59
2022/05/08 11:14:30;;;;;;;;;;;;;;;24.47;40.96;101361.80;1723917;83;20196;-58
2022/05/08 11:17:34;;;;;;;;;;;;;;;24.73;40.68;101351.56;1723950;83;20247;-59
2022/05/08 11:20:44;;;;;;;;;;;;;;;24.85;40.47;101352.38;1723603;83;20220;-57
2022/05/08 11:23:53;;;;;;;;;;;;;;;24.95;40.40;101349.28;1732865;81;20269;-59
2022/05/08 11:26:57;;;;;;;;;;;;;;;24.95;40.25;101355.42;1738996;82;20221;-57
2022/05/08 11:30:02;;;;;;;;;;;;;;;24.91;40.19;101338.81;1738943;82;20202;-59
2022/05/08 11:36:38;;;;;;;;;;;;;;;24.33;39.95;101332.34;1738208;82;20218;-57
2022/05/08 11:39:43;;;;;;;;;;;;;;;24.06;39.94;101324.97;1738343;82;20206;-57
2022/05/08 11:42:50;;;;;;;;;;;;;;;24.00;39.98;101325.94;1751542;81;20216;-58
2022/05/08 11:46:04;;;;;;;;;;;;;;;24.21;40.21;101323.97;1743268;82;20214;-58
2022/05/08 11:49:21;;;;;;;;;;;;;;;24.49;40.18;101315.69;1741495;82;20217;-59
2022/05/08 11:52:27;;;;;;;;;;;;;;;24.47;40.00;101311.41;1739791;82;20267;-57
2022/05/08 11:55:33;;;;;;;;;;;;;;;24.16;39.72;101309.84;1739346;82;20594;-58
2022/05/08 11:58:42;;;;;;;;;;;;;;;24.06;39.78;101304.52;1739888;82;20198;-58
2022/05/08 12:01:53;;;;;;;;;;;;;;;24.15;39.78;101297.50;1739725;81;20300;-59
2022/05/08 12:05:04;;;;;;;;;;;;;;;24.24;39.82;101305.29;1753182;81;20208;-60
2022/05/08 12:08:11;;;;;;;;;;;;;;;24.37;39.84;101290.20;1752233;81;20289;-60
2022/05/08 12:11:15;;;;;;;;;;;;;;;24.42;39.73;101289.75;1735937;81;20201;-58
2022/05/08 12:14:21;;;;;;;;;;;;;;;24.54;39.74;101282.21;1747288;81;20899;-58
2022/05/08 12:17:27;;;;;;;;;;;;;;;24.64;39.62;101289.42;1708274;82;20220;-58
2022/05/08 12:20:35;;;;;;;;;;;;;;;24.70;39.59;101280.09;1707739;84;20565;-57
2022/05/08 12:23:44;;;;;;;;;;;;;;;24.82;39.48;101271.09;1720280;81;20234;-58
2022/05/08 12:26:50;;;;;;;;;;;;;;;24.86;39.31;101269.48;1725695;81;20260;-58
2022/05/08 12:29:57;;;;;;;;;;;;;;;24.70;39.23;101274.48;1706796;83;20227;-57
2022/05/08 12:33:05;;;;;;;;;;;;;;;24.72;39.30;101268.64;1710369;81;20272;-58
2022/05/08 12:36:13;;;;;;;;;;;;;;;24.83;39.22;101255.98;1706410;83;20236;-58
2022/05/08 12:39:19;;;;;;;;;;;;;;;24.99;39.13;101252.94;1689708;83;20205;-59
2022/05/08 12:42:22;;;;;;;;;;;;;;;25.10;39.01;101248.41;1720631;83;20206;-58
2022/05/08 12:45:27;;;;;;;;;;;;;;;25.13;38.88;101243.70;1735844;82;20570;-57
2022/05/08 12:48:35;;;;;;;;;;;;;;;25.13;38.82;101245.11;1718799;82;20214;-58
2022/05/08 12:51:38;;;;;;;;;;;;;;;25.22;38.72;101247.26;1736311;82;20210;-58
2022/05/08 12:54:30;;;;;;;;;;;;;;;25.31;38.62;101242.94;1732148;82;20226;-59
2022/05/08 13:01:00;;;;;;;;;;;;;;;25.51;38.56;101243.37;1731282;82;20606;-58
2022/05/08 13:04:08;;;;;;;;;;;;;;;25.58;38.40;101228.61;1735950;82;20249;-57
2022/05/08 13:07:13;;;;;;;;;;;;;;;25.69;38.34;101235.27;1736082;82;20218;-58
2022/05/08 13:10:20;;;;;;;;;;;;;;;25.76;38.18;101225.57;1736753;82;20241;-58
2022/05/08 13:13:30;;;;;;;;;;;;;;;25.75;38.02;101225.25;1749144;81;20224;-58
2022/05/08 13:16:36;;;;;;;;;;;;;;;25.77;37.93;101222.19;1762901;80;20215;-58
2022/05/08 13:19:43;;;;;;;;;;;;;;;25.73;37.72;101218.21;1761826;81;20236;-57
2022/05/08 13:22:47;;;;;;;;;;;;;;;25.68;37.66;101216.72;1762314;80;20200;-58
2022/05/08 13:25:53;;;;;;;;;;;;;;;25.67;37.54;101211.65;1762125;80;20208;-57
2022/05/08 13:29:01;;;;;;;;;;;;;;;25.61;37.39;101215.48;1764970;81;20548;-59
2022/05/08 13:32:07;;;;;;;;;;;;;;;25.68;37.42;101212.52;1765868;81;20204;-58
2022/05/08 13:35:15;;;;;;;;;;;;;;;25.87;37.31;101203.59;1766166;81;20204;-58
2022/05/08 13:38:21;;;;;;;;;;;;;;;25.92;37.10;101206.48;1765920;81;20186;-59
2022/05/08 13:41:26;;;;;;;;;;;;;;;26.03;37.03;101194.88;1765991;81;20188;-58
2022/05/08 13:44:43;;;;;;;;;;;;;;;26.11;36.85;101196.70;1765879;81;20197;-60
2022/05/08 13:47:51;;;;;;;;;;;;;;;26.08;36.74;101193.56;1765731;81;20548;-59
2022/05/08 13:50:58;;;;;;;;;;;;;;;26.20;36.81;101195.69;1765961;81;20244;-59
2022/05/08 13:54:05;;;;;;;;;;;;;;;26.60;36.60;101190.64;1762628;81;20230;-58
2022/05/08 13:57:13;;;;;;;;;;;;;;;26.78;36.37;101182.47;1714973;83;20287;-58
2022/05/08 14:00:17;;;;;;;;;;;;;;;26.74;36.23;101185.49;1723494;82;20639;-59
2022/05/08 14:03:24;;;;;;;;;;;;;;;26.84;36.11;101185.08;1708279;83;20268;-58
2022/05/08 14:06:28;;;;;;;;;;;;;;;27.36;35.76;101179.75;1725007;83;20561;-58
2022/05/08 14:09:33;;;;;;;;;;;;;;;27.84;35.32;101178.20;1720002;81;20867;-60
2022/05/08 14:12:41;;;;;;;;;;;;;;;27.58;35.24;101179.97;1728066;82;20249;-59
2022/05/08 14:15:45;;;;;;;;;;;;;;;27.07;35.46;101181.95;1716851;82;20216;-58
2022/05/08 14:18:51;;;;;;;;;;;;;;;26.68;35.62;101173.36;1708288;84;20252;-57
2022/05/08 14:21:55;;;;;;;;;;;;;;;26.63;35.62;101174.66;1719221;82;20202;-58
2022/05/08 14:25:01;;;;;;;;;;;;;;;26.70;35.43;101173.09;1727867;82;20217;-58
2022/05/08 14:28:05;;;;;;;;;;;;;;;26.87;35.27;101167.69;1732812;82;20211;-58
2022/05/08 14:37:59;;;;;;;;;;;;;;;26.60;35.01;101161.14;1725377;82;20212;-58
2022/05/08 14:41:05;;;;;;;;;;;;;;;26.51;34.87;101162.72;1726416;83;20218;-59
2022/05/08 14:44:09;;;;;;;;;;;;;;;26.88;34.85;101158.13;1718308;82;20250;-59
2022/05/08 14:47:18;;;;;;;;;;;;;;;27.22;34.62;101151.20;1706205;83;20248;-59
2022/05/08 14:50:22;;;;;;;;;;;;;;;27.33;34.55;101147.39;1705408;83;20209;-60
2022/05/08 14:53:26;;;;;;;;;;;;;;;27.85;34.54;101155.42;1705465;83;20224;-59
2022/05/08 14:56:32;;;;;;;;;;;;;;;28.55;34.10;101150.81;1714926;82;20212;-59
2022/05/08 14:59:36;;;;;;;;;;;;;;;28.77;33.59;101157.64;1728800;82;20205;-59
2022/05/08 15:02:42;;;;;;;;;;;;;;;28.52;33.52;101145.73;1737472;82;20601;-60
2022/05/08 15:05:47;;;;;;;;;;;;;;;28.87;33.54;101137.39;1734799;83;20222;-60
2022/05/08 15:08:53;;;;;;;;;;;;;;;29.57;32.99;101140.89;1735651;83;20613;-58
2022/05/08 15:12:03;;;;;;;;;;;;;;;29.77;32.74;101139.48;1736455;82;20210;-59
2022/05/08 15:15:12;;;;;;;;;;;;;;;29.54;32.72;101137.78;1735126;81;20198;-59
2022/05/08 15:21:43;;;;;;;;;;;;;;;28.80;32.93;101135.94;1718578;82;20204;-58
2022/05/08 15:24:49;;;;;;;;;;;;;;;28.66;33.09;101139.00;1715610;81;20568;-58
2022/05/08 15:27:57;;;;;;;;;;;;;;;28.70;32.95;101137.34;1722675;82;20214;-59
2022/05/08 15:31:01;;;;;;;;;;;;;;;28.77;32.69;101132.27;1740582;81;20245;-58
2022/05/08 15:34:07;;;;;;;;;;;;;;;28.52;32.82;101130.78;1734699;82;20223;-58
2022/05/08 15:37:12;;;;;;;;;;;;;;;28.80;32.70;101126.93;1746779;81;20241;-59
2022/05/08 15:40:19;;;;;;;;;;;;;;;29.28;32.32;101130.42;1732214;81;20615;-60
2022/05/08 15:43:24;;;;;;;;;;;;;;;29.62;32.04;101128.16;1729081;82;20197;-59
2022/05/08 15:46:27;;;;;;;;;;;;;;;29.62;32.02;101130.16;1733187;82;20837;-58
2022/05/08 15:49:32;;;;;;;;;;;;;;;29.63;31.99;101131.84;1735866;81;20560;-58
2022/05/08 15:52:40;;;;;;;;;;;;;;;29.70;31.86;101133.27;1724321;83;20514;-62
2022/05/08 15:55:43;;;;;;;;;;;;;;;29.33;31.80;101127.05;1701991;83;20553;-62
2022/05/08 15:58:49;;;;;;;;;;;;;;;28.55;31.97;101135.86;1724801;83;20564;-64
2022/05/08 16:01:55;;;;;;;;;;;;;;;28.36;32.03;101131.25;1724957;83;20213;-64
2022/05/08 16:05:02;;;;;;;;;;;;;;;28.77;31.74;101129.45;1724890;83;20563;-64
2022/05/08 16:08:06;;;;;;;;;;;;;;;29.28;31.36;101128.46;1733353;80;20611;-63
2022/05/08 16:11:12;;;;;;;;;;;;;;;29.57;31.08;101128.20;1724169;83;20235;-63
2022/05/08 16:24:28;;;;;;;;;;;;;;;28.89;30.93;101124.43;1725573;83;20306;-62
2022/05/08 16:27:31;;;;;;;;;;;;;;;28.25;31.04;101124.42;1726057;83;20208;-62
2022/05/08 16:30:36;;;;;;;;;;;;;;;27.50;31.20;101130.36;1711901;82;20201;-63
2022/05/08 16:33:45;;;;;;;;;;;;;;;26.82;31.49;101130.23;1721488;81;20202;-62
2022/05/08 16:36:50;;;;;;;;;;;;;;;26.22;31.67;101131.72;1717549;83;20567;-62
2022/05/08 16:39:54;;;;;;;;;;;;;;;25.63;31.81;101132.48;1718987;81;20208;-62
2022/05/08 16:43:00;;;;;;;;;;;;;;;25.05;31.90;101126.69;1714703;81;20217;-62
2022/05/08 16:46:09;;;;;;;;;;;;;;;24.54;31.99;101131.00;1726241;81;20245;-62